Time;durP1;ratioP1;P1;durP2;ratioP2;P2;SDS_P1;SDS_P2;PMS_P1;PMS_P2;Temp;Humidity;BMP_temperature;BMP_pressure;BME280_temperature;BME280_humidity;BME280_pressure;Samples;Min_cycle;Max_cycle;Signal;HPM_P1;HPM_P2
2022/07/09 00:00:14;;;;;;;3.87;3.40;;;13.30;84.10;;;;;;4988153;28;20211;-59
2022/07/09 00:02:40;;;;;;;3.20;2.83;;;13.30;84.60;;;;;;4986660;28;20189;-59
2022/07/09 00:05:06;;;;;;;5.20;3.50;;;13.20;85.10;;;;;;4985550;28;20196;-60
2022/07/09 00:07:32;;;;;;;9.27;4.83;;;13.20;85.80;;;;;;4989196;28;20468;-59
2022/07/09 00:09:57;;;;;;;5.93;3.27;;;13.20;86.60;;;;;;4991157;28;20507;-59
2022/07/09 00:12:23;;;;;;;5.33;3.60;;;13.10;87.40;;;;;;4982935;28;20606;-60
2022/07/09 00:14:50;;;;;;;4.97;3.00;;;13.10;88.10;;;;;;4986620;28;20201;-59
2022/07/09 00:17:16;;;;;;;5.63;3.30;;;13.10;88.50;;;;;;4983466;28;20269;-59
2022/07/09 00:19:41;;;;;;;5.37;3.70;;;13.00;89.00;;;;;;4986185;28;20435;-60
2022/07/09 00:22:07;;;;;;;3.57;3.20;;;13.00;89.80;;;;;;4985388;28;20181;-59
2022/07/09 00:24:33;;;;;;;7.50;3.50;;;13.00;89.60;;;;;;4979630;28;20197;-59
2022/07/09 00:26:58;;;;;;;3.20;2.90;;;13.00;90.00;;;;;;4984388;28;20186;-59
2022/07/09 00:29:24;;;;;;;5.73;3.20;;;12.90;90.20;;;;;;4985348;28;21797;-61
2022/07/09 00:31:49;;;;;;;3.23;2.73;;;12.90;90.20;;;;;;4986549;28;20185;-60
2022/07/09 00:34:15;;;;;;;7.37;3.40;;;12.90;90.40;;;;;;4986261;28;20193;-60
2022/07/09 00:36:40;;;;;;;4.37;3.70;;;12.90;90.60;;;;;;4988759;28;21003;-59
2022/07/09 00:39:06;;;;;;;6.90;3.47;;;12.80;90.40;;;;;;4984874;28;20174;-59
2022/07/09 00:41:32;;;;;;;3.30;3.00;;;12.80;90.60;;;;;;4989364;28;20181;-59
2022/07/09 00:43:57;;;;;;;5.13;3.20;;;12.80;90.60;;;;;;4988377;28;20197;-59
2022/07/09 00:46:23;;;;;;;3.97;3.30;;;12.80;90.90;;;;;;4991532;28;20172;-60
2022/07/09 00:48:49;;;;;;;8.47;2.93;;;12.80;91.00;;;;;;4986033;28;20177;-59
2022/07/09 00:51:17;;;;;;;5.50;3.10;;;12.80;91.20;;;;;;4984411;28;20276;-60
2022/07/09 00:53:45;;;;;;;4.13;2.60;;;12.70;91.40;;;;;;4988402;28;20193;-61
2022/07/09 00:56:12;;;;;;;4.87;3.10;;;12.70;91.40;;;;;;4988822;28;20785;-59
2022/07/09 00:58:38;;;;;;;3.43;2.80;;;12.60;91.50;;;;;;4986624;28;20424;-60
2022/07/09 01:01:06;;;;;;;6.00;3.33;;;12.60;91.60;;;;;;4986140;28;20437;-59
2022/07/09 01:03:32;;;;;;;5.13;2.93;;;12.50;91.50;;;;;;4982857;28;20447;-59
2022/07/09 01:05:57;;;;;;;4.60;3.30;;;12.50;91.70;;;;;;4986231;28;20452;-59
2022/07/09 01:08:25;;;;;;;6.93;3.30;;;12.40;91.80;;;;;;4985690;28;20169;-60
2022/07/09 01:10:52;;;;;;;4.00;3.27;;;12.40;91.90;;;;;;4988144;28;20506;-59
2022/07/09 01:13:17;;;;;;;5.87;3.07;;;12.30;92.10;;;;;;4986408;28;20427;-58
2022/07/09 01:15:43;;;;;;;4.60;3.60;;;12.30;92.30;;;;;;4986849;28;20523;-60
2022/07/09 01:18:12;;;;;;;3.30;3.00;;;12.20;92.70;;;;;;4985590;28;20185;-59
2022/07/09 01:20:38;;;;;;;5.50;3.60;;;12.20;92.80;;;;;;4986492;28;20173;-60
2022/07/09 01:23:04;;;;;;;5.63;3.70;;;12.10;93.10;;;;;;4986405;28;20473;-59
2022/07/09 01:25:38;;;;;;;5.70;3.20;;;12.10;93.30;;;;;;4986929;28;20899;-59
2022/07/09 01:28:05;;;;;;;9.30;3.33;;;12.00;93.80;;;;;;4985054;28;20170;-59
2022/07/09 01:30:33;;;;;;;3.00;2.73;;;12.00;94.20;;;;;;4983300;28;20440;-59
2022/07/09 01:33:00;;;;;;;4.10;3.47;;;12.00;94.30;;;;;;4986374;28;20428;-60
2022/07/09 01:35:26;;;;;;;3.90;3.00;;;11.90;94.30;;;;;;4982063;28;20822;-59
2022/07/09 01:37:53;;;;;;;4.23;3.07;;;11.90;94.60;;;;;;4988322;28;20440;-59
2022/07/09 01:40:19;;;;;;;4.67;3.17;;;11.80;94.70;;;;;;4987091;28;20435;-61
2022/07/09 01:42:47;;;;;;;6.37;3.70;;;11.80;95.20;;;;;;4983495;28;20436;-60
2022/07/09 01:45:12;;;;;;;5.33;3.40;;;11.70;95.40;;;;;;4981791;28;20460;-59
2022/07/09 01:47:38;;;;;;;5.33;3.17;;;11.70;96.00;;;;;;4983685;28;20441;-60
2022/07/09 01:50:05;;;;;;;8.43;3.30;;;11.70;96.00;;;;;;4981550;28;20174;-59
2022/07/09 01:52:31;;;;;;;6.70;3.63;;;11.70;95.80;;;;;;4982292;28;20694;-59
2022/07/09 01:54:57;;;;;;;5.03;3.20;;;11.70;96.30;;;;;;4987510;28;20432;-59
2022/07/09 01:57:22;;;;;;;3.23;2.93;;;11.70;96.10;;;;;;4982184;28;20432;-60
2022/07/09 01:59:48;;;;;;;3.57;3.27;;;11.70;96.20;;;;;;4980796;28;20440;-60
2022/07/09 02:02:13;;;;;;;6.27;2.97;;;11.60;96.30;;;;;;4979058;28;20196;-60
2022/07/09 02:04:39;;;;;;;5.10;3.20;;;11.60;96.10;;;;;;4980051;28;20224;-59
2022/07/09 02:07:05;;;;;;;4.47;3.70;;;11.60;96.00;;;;;;4981848;28;20257;-59
2022/07/09 02:09:30;;;;;;;8.20;4.93;;;11.60;96.30;;;;;;4985441;28;20189;-59
2022/07/09 02:11:56;;;;;;;4.47;4.03;;;11.60;96.40;;;;;;4981796;28;20177;-61
2022/07/09 02:14:22;;;;;;;6.50;3.60;;;11.50;96.10;;;;;;4981481;28;20212;-59
2022/07/09 02:16:48;;;;;;;7.03;3.37;;;11.50;96.70;;;;;;4980674;28;20169;-59
2022/07/09 02:19:14;;;;;;;4.80;3.50;;;11.40;97.20;;;;;;4978984;28;20205;-59
2022/07/09 02:21:40;;;;;;;4.47;3.53;;;11.40;97.40;;;;;;4983901;28;20512;-59
2022/07/09 02:24:06;;;;;;;15.20;3.67;;;11.40;97.50;;;;;;4978203;28;20547;-59
2022/07/09 02:26:31;;;;;;;4.73;3.20;;;11.30;97.60;;;;;;4980044;28;20196;-59
2022/07/09 02:28:58;;;;;;;4.57;2.97;;;11.30;97.50;;;;;;4984791;28;20428;-60
2022/07/09 02:31:23;;;;;;;5.40;2.90;;;11.30;97.50;;;;;;4983239;28;20183;-59
2022/07/09 02:33:49;;;;;;;3.57;3.07;;;11.20;98.10;;;;;;4982197;28;20487;-59
2022/07/09 02:36:14;;;;;;;5.03;3.63;;;11.20;98.40;;;;;;4980619;28;20229;-59
2022/07/09 02:38:40;;;;;;;4.97;3.70;;;11.10;98.50;;;;;;4981609;28;20182;-59
2022/07/09 02:41:06;;;;;;;6.20;3.30;;;11.00;98.70;;;;;;4984334;28;20176;-59
2022/07/09 02:43:32;;;;;;;4.00;3.50;;;11.00;99.10;;;;;;4983723;28;20848;-61
2022/07/09 02:45:58;;;;;;;5.00;3.40;;;11.00;99.40;;;;;;4984129;28;20279;-59
2022/07/09 02:48:27;;;;;;;4.87;3.20;;;11.00;99.40;;;;;;4982530;28;20956;-60
2022/07/09 02:50:53;;;;;;;4.87;3.80;;;11.00;99.70;;;;;;4980902;28;20176;-59
2022/07/09 02:53:19;;;;;;;5.60;3.90;;;11.00;99.60;;;;;;4980915;28;20488;-59
2022/07/09 02:55:45;;;;;;;5.60;3.63;;;10.90;99.30;;;;;;4981210;28;20443;-59
2022/07/09 02:58:11;;;;;;;9.60;3.50;;;10.90;99.60;;;;;;4980591;28;20502;-60
2022/07/09 03:00:41;;;;;;;4.83;3.60;;;10.90;99.90;;;;;;4981347;28;20173;-59
2022/07/09 03:03:07;;;;;;;5.50;3.43;;;10.90;99.90;;;;;;4982571;28;20443;-59
2022/07/09 03:05:34;;;;;;;6.47;3.40;;;10.80;99.90;;;;;;4980330;28;20460;-60
2022/07/09 03:08:00;;;;;;;4.37;3.27;;;10.80;99.90;;;;;;4980855;28;20551;-60
2022/07/09 03:10:26;;;;;;;8.37;3.83;;;10.80;99.90;;;;;;4982205;28;20935;-59
2022/07/09 03:12:51;;;;;;;3.67;3.37;;;10.80;99.90;;;;;;4979778;28;20437;-59
2022/07/09 03:15:17;;;;;;;3.83;2.93;;;10.70;99.90;;;;;;4978268;28;20789;-60
2022/07/09 03:17:47;;;;;;;6.37;3.30;;;10.70;99.90;;;;;;4980909;28;20182;-60
2022/07/09 03:20:13;;;;;;;7.77;3.43;;;10.70;99.90;;;;;;4983066;28;20240;-60
2022/07/09 03:22:40;;;;;;;6.70;3.20;;;10.60;99.90;;;;;;4984217;28;20429;-60
2022/07/09 03:25:06;;;;;;;5.97;3.67;;;10.60;99.90;;;;;;4982219;28;21257;-60
2022/07/09 03:27:33;;;;;;;3.90;3.23;;;10.60;99.90;;;;;;4981994;28;20466;-59
2022/07/09 03:29:59;;;;;;;5.90;3.37;;;10.50;99.90;;;;;;4985102;28;20961;-59
2022/07/09 03:32:25;;;;;;;8.30;3.23;;;10.50;99.90;;;;;;4986594;28;20526;-59
2022/07/09 03:34:52;;;;;;;4.87;3.83;;;10.50;99.90;;;;;;4979615;28;20977;-59
2022/07/09 03:37:18;;;;;;;5.00;3.30;;;10.50;99.90;;;;;;4987568;28;20888;-60
2022/07/09 03:39:44;;;;;;;4.93;3.57;;;10.50;99.90;;;;;;4986303;28;20440;-59
2022/07/09 03:42:10;;;;;;;3.47;3.17;;;10.50;99.90;;;;;;4985444;28;20976;-60
2022/07/09 03:44:36;;;;;;;5.80;3.70;;;10.50;99.90;;;;;;4989016;28;20940;-59
2022/07/09 03:47:02;;;;;;;3.90;3.07;;;10.40;99.90;;;;;;4988414;28;20433;-60
2022/07/09 03:49:28;;;;;;;3.60;3.30;;;10.40;99.90;;;;;;4987112;28;20183;-60
2022/07/09 03:51:53;;;;;;;4.60;3.20;;;10.40;99.90;;;;;;4984438;28;20185;-59
2022/07/09 03:54:19;;;;;;;3.73;3.30;;;10.40;99.90;;;;;;4987474;28;20290;-59
2022/07/09 03:56:45;;;;;;;3.80;3.40;;;10.40;99.90;;;;;;4986347;28;20622;-60
2022/07/09 03:59:11;;;;;;;5.40;3.43;;;10.40;99.90;;;;;;4985381;28;20239;-60
2022/07/09 04:01:37;;;;;;;4.50;3.90;;;10.40;99.90;;;;;;4987642;28;20662;-60
2022/07/09 04:04:03;;;;;;;5.60;3.63;;;10.30;99.90;;;;;;4987083;28;20201;-60
2022/07/09 04:06:29;;;;;;;6.10;3.73;;;10.30;99.90;;;;;;4985751;28;21109;-60
2022/07/09 04:08:55;;;;;;;6.10;3.67;;;10.30;99.90;;;;;;4987526;28;20520;-60
2022/07/09 04:11:20;;;;;;;4.40;3.90;;;10.30;99.90;;;;;;4986022;28;20181;-59
2022/07/09 04:13:46;;;;;;;8.07;4.33;;;10.30;99.90;;;;;;4989907;28;20340;-59
2022/07/09 04:16:12;;;;;;;6.70;3.67;;;10.30;99.90;;;;;;4989324;28;20178;-59
2022/07/09 04:18:37;;;;;;;6.80;3.67;;;10.30;99.90;;;;;;4980899;28;20219;-59
2022/07/09 04:21:03;;;;;;;6.50;3.70;;;10.20;99.90;;;;;;4985539;28;20180;-60
2022/07/09 04:23:29;;;;;;;7.50;4.00;;;10.30;99.90;;;;;;4987779;28;20173;-59
2022/07/09 04:25:55;;;;;;;10.13;5.47;;;10.30;99.90;;;;;;4981665;28;20844;-59
2022/07/09 04:28:21;;;;;;;10.40;4.13;;;10.30;99.90;;;;;;4984296;28;20173;-60
2022/07/09 04:30:47;;;;;;;7.40;4.27;;;10.30;99.90;;;;;;4987894;28;20484;-60
2022/07/09 04:33:12;;;;;;;5.30;4.07;;;10.30;99.90;;;;;;4987660;28;20247;-59
2022/07/09 04:35:38;;;;;;;5.83;4.40;;;10.30;99.90;;;;;;4984302;28;20548;-60
2022/07/09 04:38:04;;;;;;;6.83;3.80;;;10.30;99.90;;;;;;4983845;28;20527;-59
2022/07/09 04:40:30;;;;;;;5.87;4.30;;;10.40;99.90;;;;;;4987060;28;20178;-60
2022/07/09 04:42:56;;;;;;;5.30;4.30;;;10.50;99.90;;;;;;4986094;28;20424;-59
2022/07/09 04:45:22;;;;;;;5.50;3.90;;;10.50;99.90;;;;;;4988354;28;21015;-59
2022/07/09 04:47:48;;;;;;;4.10;3.80;;;10.50;99.90;;;;;;4986097;28;20666;-60
2022/07/09 04:50:14;;;;;;;15.03;4.40;;;10.60;99.90;;;;;;4983624;28;20966;-60
2022/07/09 04:52:40;;;;;;;8.23;3.93;;;10.60;99.90;;;;;;4983899;28;20441;-58
2022/07/09 04:55:06;;;;;;;9.93;4.30;;;10.70;99.90;;;;;;4981726;28;20193;-60
2022/07/09 04:57:32;;;;;;;8.83;4.87;;;10.70;99.90;;;;;;4985611;28;20543;-58
2022/07/09 05:00:01;;;;;;;7.20;4.37;;;10.80;99.90;;;;;;4984227;28;20432;-59
2022/07/09 05:02:27;;;;;;;8.83;5.30;;;10.90;99.90;;;;;;4981825;28;20976;-61
2022/07/09 05:04:53;;;;;;;7.30;5.57;;;11.00;99.90;;;;;;4983262;28;20456;-61
2022/07/09 05:07:19;;;;;;;11.53;5.20;;;11.10;99.90;;;;;;4982448;28;20441;-59
2022/07/09 05:09:45;;;;;;;7.97;5.70;;;11.20;99.90;;;;;;4984007;28;20181;-59
2022/07/09 05:12:11;;;;;;;9.23;6.47;;;11.30;99.90;;;;;;4982603;28;20429;-59
2022/07/09 05:14:37;;;;;;;5.37;4.60;;;11.30;99.90;;;;;;4980013;28;20189;-58
2022/07/09 05:17:04;;;;;;;11.00;5.30;;;11.40;99.90;;;;;;4984000;28;20185;-59
2022/07/09 05:19:30;;;;;;;5.43;4.00;;;11.50;99.90;;;;;;4982046;28;20977;-59
2022/07/09 05:21:56;;;;;;;7.93;4.83;;;11.60;99.90;;;;;;4981870;28;20433;-60
2022/07/09 05:24:21;;;;;;;10.10;4.87;;;11.70;99.60;;;;;;4983665;28;20522;-59
2022/07/09 05:26:47;;;;;;;9.50;5.20;;;11.80;98.70;;;;;;4983346;28;20796;-59
2022/07/09 05:29:12;;;;;;;8.33;5.73;;;11.90;98.20;;;;;;4982718;28;20257;-59
2022/07/09 05:31:38;;;;;;;8.17;5.80;;;11.90;97.70;;;;;;4984819;28;20600;-61
2022/07/09 05:34:05;;;;;;;10.40;5.67;;;12.00;97.40;;;;;;4983154;28;20312;-59
2022/07/09 05:36:31;;;;;;;9.27;6.10;;;12.10;97.30;;;;;;4984657;28;20181;-59
2022/07/09 05:38:58;;;;;;;12.53;5.97;;;12.20;97.40;;;;;;4980644;28;20440;-60
2022/07/09 05:41:24;;;;;;;8.77;5.70;;;12.20;97.50;;;;;;4985640;28;20423;-60
2022/07/09 05:43:51;;;;;;;10.40;5.00;;;12.30;97.30;;;;;;4981410;28;20946;-61
2022/07/09 05:46:17;;;;;;;9.00;5.83;;;12.40;97.20;;;;;;4988559;28;20206;-59
2022/07/09 05:48:42;;;;;;;9.27;5.40;;;12.50;96.70;;;;;;4983371;28;20436;-60
2022/07/09 05:51:08;;;;;;;7.23;4.93;;;12.60;96.30;;;;;;4984429;28;20428;-60
2022/07/09 05:53:34;;;;;;;10.30;5.40;;;12.60;96.00;;;;;;4982135;28;20581;-60
2022/07/09 05:56:00;;;;;;;9.80;4.60;;;12.70;95.80;;;;;;4982056;28;20181;-59
2022/07/09 05:58:25;;;;;;;12.20;5.33;;;12.70;96.50;;;;;;4981978;28;20177;-59
2022/07/09 06:00:51;;;;;;;9.07;5.30;;;12.80;96.50;;;;;;4979764;28;20199;-59
2022/07/09 06:03:17;;;;;;;10.50;5.03;;;12.90;96.40;;;;;;4980696;28;20191;-59
2022/07/09 06:05:43;;;;;;;7.43;4.77;;;13.00;96.60;;;;;;4980432;28;20212;-59
2022/07/09 06:08:09;;;;;;;7.70;5.13;;;13.10;95.80;;;;;;4980352;28;20425;-60
2022/07/09 06:10:35;;;;;;;6.93;4.70;;;13.20;95.20;;;;;;4977233;28;20623;-59
2022/07/09 06:13:01;;;;;;;11.87;5.00;;;13.30;95.20;;;;;;4980627;28;20220;-59
2022/07/09 06:15:27;;;;;;;10.53;5.20;;;13.40;95.10;;;;;;4980463;28;20456;-60
2022/07/09 06:17:53;;;;;;;8.90;5.00;;;13.50;95.40;;;;;;4977266;28;20573;-58
2022/07/09 06:20:18;;;;;;;7.93;4.70;;;13.60;95.50;;;;;;4969110;28;20518;-59
2022/07/09 06:22:44;;;;;;;9.83;4.97;;;13.70;94.90;;;;;;4976355;28;20697;-59
2022/07/09 06:25:10;;;;;;;6.87;4.40;;;13.90;94.70;;;;;;4972935;28;20226;-59
2022/07/09 06:27:36;;;;;;;7.97;4.77;;;14.00;93.40;;;;;;4975652;28;20709;-61
2022/07/09 06:30:02;;;;;;;8.60;4.50;;;14.00;93.10;;;;;;4969767;28;20443;-60
2022/07/09 06:32:28;;;;;;;5.77;4.23;;;14.20;93.30;;;;;;4987058;28;20188;-59
2022/07/09 06:34:53;;;;;;;9.60;4.80;;;14.30;92.70;;;;;;4971504;28;20799;-59
2022/07/09 06:37:19;;;;;;;11.63;4.40;;;14.40;92.00;;;;;;4985794;28;20776;-60
2022/07/09 06:39:45;;;;;;;10.23;6.30;;;14.50;91.40;;;;;;4980498;28;20207;-59
2022/07/09 06:42:11;;;;;;;8.67;5.70;;;14.60;91.30;;;;;;4979254;28;20407;-59
2022/07/09 06:44:37;;;;;;;10.43;6.00;;;14.70;90.50;;;;;;4974922;28;20213;-59
2022/07/09 06:47:04;;;;;;;10.70;5.70;;;14.80;90.50;;;;;;4970029;28;20844;-61
2022/07/09 06:49:30;;;;;;;9.50;6.43;;;14.90;89.70;;;;;;4972231;28;20432;-58
2022/07/09 06:51:56;;;;;;;6.83;5.33;;;15.00;88.20;;;;;;4982010;28;21082;-58
2022/07/09 06:54:22;;;;;;;6.27;5.30;;;15.10;89.30;;;;;;4968214;28;20475;-59
2022/07/09 06:56:47;;;;;;;9.37;4.57;;;15.20;88.90;;;;;;4982779;28;20440;-59
2022/07/09 06:59:13;;;;;;;6.70;4.83;;;15.40;90.50;;;;;;4977250;28;20185;-59
2022/07/09 07:01:39;;;;;;;7.77;4.83;;;15.60;90.00;;;;;;4979991;28;20932;-59
2022/07/09 07:04:06;;;;;;;11.97;4.90;;;15.80;87.70;;;;;;4984358;28;20235;-58
2022/07/09 07:06:32;;;;;;;6.43;4.40;;;15.90;85.00;;;;;;4986455;28;20431;-60
2022/07/09 07:08:58;;;;;;;13.90;5.10;;;16.00;85.60;;;;;;4986054;28;20436;-62
2022/07/09 07:11:24;;;;;;;8.03;4.67;;;16.20;85.60;;;;;;4978420;28;20180;-63
2022/07/09 07:13:50;;;;;;;7.70;4.90;;;16.30;85.40;;;;;;4988996;28;20463;-62
2022/07/09 07:16:16;;;;;;;12.53;5.17;;;16.40;84.30;;;;;;4976534;28;20519;-60
2022/07/09 07:18:41;;;;;;;12.07;6.23;;;16.60;82.00;;;;;;4988792;28;20185;-60
2022/07/09 07:21:07;;;;;;;15.70;5.40;;;16.70;77.80;;;;;;4977118;28;20188;-65
2022/07/09 07:23:33;;;;;;;9.97;4.70;;;16.80;78.80;;;;;;4981500;28;20929;-64
2022/07/09 07:25:59;;;;;;;11.73;3.87;;;16.90;76.90;;;;;;4980157;28;20201;-62
2022/07/09 07:28:25;;;;;;;7.03;3.10;;;17.10;70.60;;;;;;4979634;28;20195;-64
2022/07/09 07:30:51;;;;;;;5.53;3.53;;;17.20;66.60;;;;;;4979698;28;21190;-61
2022/07/09 07:33:17;;;;;;;4.73;2.93;;;17.40;65.70;;;;;;4980408;28;20296;-61
2022/07/09 07:35:44;;;;;;;4.80;3.07;;;17.60;64.80;;;;;;4972704;28;20440;-62
2022/07/09 07:38:10;;;;;;;17.50;3.60;;;17.70;62.10;;;;;;4980290;28;20169;-61
2022/07/09 07:40:36;;;;;;;8.50;3.10;;;17.90;61.90;;;;;;4986743;28;20586;-60
2022/07/09 07:43:02;;;;;;;12.10;3.00;;;18.10;60.60;;;;;;4982389;28;20174;-63
2022/07/09 07:45:28;;;;;;;5.83;2.63;;;18.20;59.00;;;;;;4968257;28;20467;-62
2022/07/09 07:47:54;;;;;;;9.03;2.73;;;18.40;59.00;;;;;;4969168;28;20424;-63
2022/07/09 07:50:20;;;;;;;3.63;2.60;;;18.50;59.70;;;;;;4969811;28;20659;-61
2022/07/09 07:52:46;;;;;;;16.40;10.00;;;18.70;59.00;;;;;;4982359;28;20505;-64
2022/07/09 07:55:12;;;;;;;11.13;6.57;;;18.70;58.50;;;;;;4983625;28;20968;-61
2022/07/09 07:57:37;;;;;;;4.60;2.33;;;18.80;57.70;;;;;;4980167;28;20185;-62
2022/07/09 08:00:04;;;;;;;8.20;2.50;;;18.90;58.80;;;;;;4988517;28;20174;-60
2022/07/09 08:02:30;;;;;;;4.30;2.40;;;19.00;58.80;;;;;;4983901;28;20227;-61
2022/07/09 08:04:56;;;;;;;11.10;2.93;;;19.20;58.60;;;;;;4983864;28;20500;-60
2022/07/09 08:07:22;;;;;;;16.67;3.80;;;19.30;57.30;;;;;;4983654;28;20752;-62
2022/07/09 08:09:47;;;;;;;4.57;2.40;;;19.40;57.30;;;;;;4980995;28;20432;-60
2022/07/09 08:12:13;;;;;;;10.93;2.83;;;19.50;56.60;;;;;;4978732;28;20182;-62
2022/07/09 08:14:39;;;;;;;6.40;2.97;;;19.60;56.20;;;;;;4980400;28;20249;-63
2022/07/09 08:17:05;;;;;;;7.60;3.80;;;19.70;55.20;;;;;;4978903;28;20907;-61
2022/07/09 08:19:30;;;;;;;5.87;3.13;;;19.90;55.00;;;;;;4977187;28;20463;-61
2022/07/09 08:21:56;;;;;;;5.17;2.47;;;20.00;55.40;;;;;;4981615;28;20205;-60
2022/07/09 08:24:22;;;;;;;5.67;2.80;;;19.90;54.50;;;;;;4975670;28;20208;-60
2022/07/09 08:26:48;;;;;;;4.07;2.50;;;19.70;53.70;;;;;;4978439;28;20724;-63
2022/07/09 08:29:13;;;;;;;7.03;2.43;;;19.50;54.00;;;;;;4974206;28;20173;-62
2022/07/09 08:31:39;;;;;;;10.93;2.40;;;19.30;54.50;;;;;;4979798;28;20189;-66
2022/07/09 08:34:05;;;;;;;4.30;2.47;;;19.30;55.40;;;;;;4976524;28;20253;-61
2022/07/09 08:36:30;;;;;;;7.10;3.73;;;19.30;55.60;;;;;;4980018;28;20207;-61
2022/07/09 08:38:56;;;;;;;5.60;2.60;;;19.40;56.70;;;;;;4974499;28;20173;-63
2022/07/09 08:41:23;;;;;;;10.37;5.73;;;19.60;57.20;;;;;;4978386;28;20185;-63
2022/07/09 08:43:51;;;;;;;10.87;4.00;;;19.70;56.10;;;;;;4981994;28;20197;-62
2022/07/09 08:46:17;;;;;;;6.83;2.57;;;19.80;56.10;;;;;;4976526;28;21037;-64
2022/07/09 08:48:44;;;;;;;3.03;2.00;;;20.00;55.70;;;;;;4982875;28;20488;-62
2022/07/09 08:51:10;;;;;;;2.70;2.20;;;20.10;54.70;;;;;;4977594;28;20442;-62
2022/07/09 08:53:44;;;;;;;2.63;2.20;;;20.20;54.10;;;;;;4979198;28;20445;-61
2022/07/09 08:56:10;;;;;;;7.00;2.07;;;20.30;53.80;;;;;;4979459;28;20440;-60
2022/07/09 08:58:38;;;;;;;11.87;4.10;;;20.30;53.60;;;;;;4976995;28;20484;-64
2022/07/09 09:01:05;;;;;;;4.57;2.23;;;20.40;54.10;;;;;;4982755;28;20439;-62
2022/07/09 09:03:30;;;;;;;2.20;2.10;;;20.50;54.00;;;;;;4982129;28;20473;-63
2022/07/09 09:06:08;;;;;;;5.20;2.30;;;20.60;53.90;;;;;;4981660;28;20486;-62
2022/07/09 09:08:42;;;;;;;4.20;2.47;;;20.80;54.10;;;;;;4979517;28;20562;-61
2022/07/09 09:11:15;;;;;;;1.97;1.73;;;20.90;54.00;;;;;;4980833;28;20511;-61
2022/07/09 09:13:46;;;;;;;5.23;1.70;;;21.00;53.60;;;;;;4976478;28;20444;-62
2022/07/09 09:16:13;;;;;;;3.10;1.80;;;21.20;53.10;;;;;;4982101;28;20759;-62
2022/07/09 09:18:50;;;;;;;6.90;1.80;;;21.30;51.10;;;;;;4984452;28;20964;-63
2022/07/09 09:21:20;;;;;;;3.27;1.70;;;21.30;50.60;;;;;;4976667;28;20432;-63
2022/07/09 09:23:50;;;;;;;2.97;1.60;;;21.20;49.80;;;;;;4977886;28;20471;-62
2022/07/09 09:26:20;;;;;;;5.50;2.00;;;20.90;49.20;;;;;;4978821;28;20470;-62
2022/07/09 09:29:05;;;;;;;4.60;1.70;;;20.70;49.00;;;;;;4984220;28;20519;-61
2022/07/09 09:31:36;;;;;;;3.77;1.80;;;20.50;49.80;;;;;;4975515;28;21047;-60
2022/07/09 09:34:04;;;;;;;4.77;1.70;;;20.50;49.80;;;;;;4977653;28;21013;-61
2022/07/09 09:36:36;;;;;;;5.33;2.23;;;20.60;51.60;;;;;;4977005;28;20535;-61
2022/07/09 09:39:17;;;;;;;3.93;1.90;;;20.80;51.00;;;;;;4976723;28;20510;-64
2022/07/09 09:41:48;;;;;;;2.90;1.67;;;21.20;51.30;;;;;;4977418;28;20804;-63
2022/07/09 09:44:19;;;;;;;3.13;1.63;;;21.40;50.40;;;;;;4977580;28;20483;-62
2022/07/09 09:46:46;;;;;;;1.60;1.50;;;21.60;50.50;;;;;;4981859;28;20439;-63
2022/07/09 09:49:15;;;;;;;6.33;1.77;;;21.80;50.20;;;;;;4975546;28;20436;-63
2022/07/09 09:51:47;;;;;;;2.57;1.43;;;22.00;49.20;;;;;;4976101;28;20436;-61
2022/07/09 09:54:14;;;;;;;4.60;1.37;;;22.10;47.30;;;;;;4974635;28;21406;-63
2022/07/09 09:56:40;;;;;;;3.60;1.77;;;22.30;47.10;;;;;;4972832;28;20491;-59
2022/07/09 09:59:05;;;;;;;3.50;1.90;;;22.40;46.00;;;;;;4980842;28;20435;-60
2022/07/09 10:01:32;;;;;;;2.90;1.63;;;22.50;47.20;;;;;;4981506;28;20196;-59
2022/07/09 10:03:59;;;;;;;3.13;1.50;;;22.60;46.90;;;;;;4975902;28;20570;-59
2022/07/09 10:06:26;;;;;;;6.73;1.67;;;22.80;48.50;;;;;;4972720;28;20776;-58
2022/07/09 10:08:53;;;;;;;3.83;1.93;;;22.90;48.70;;;;;;4979306;28;20957;-60
2022/07/09 10:11:19;;;;;;;3.40;1.90;;;23.10;46.50;;;;;;4976181;28;20498;-60
2022/07/09 10:13:55;;;;;;;3.70;1.70;;;23.10;46.70;;;;;;4976829;28;21006;-59
2022/07/09 10:16:38;;;;;;;3.50;1.90;;;23.20;48.10;;;;;;4976084;28;20456;-60
2022/07/09 10:19:05;;;;;;;5.60;2.03;;;23.40;49.10;;;;;;4981275;28;20432;-58
2022/07/09 10:21:40;;;;;;;2.37;1.60;;;23.60;48.80;;;;;;4976341;28;20542;-59
2022/07/09 10:24:08;;;;;;;2.40;1.37;;;23.70;48.10;;;;;;4976295;28;20443;-58
2022/07/09 10:26:49;;;;;;;5.00;1.43;;;23.80;48.30;;;;;;4985855;28;20436;-58
2022/07/09 10:29:22;;;;;;;3.03;2.03;;;23.60;44.70;;;;;;4979404;28;20925;-62
2022/07/09 10:31:49;;;;;;;4.90;1.60;;;23.50;45.60;;;;;;4977871;28;20924;-61
2022/07/09 10:34:49;;;;;;;2.43;1.60;;;23.50;46.20;;;;;;4976162;28;21218;-64
2022/07/09 10:37:15;;;;;;;3.23;1.63;;;23.40;44.80;;;;;;4983201;28;20802;-63
2022/07/09 10:39:51;;;;;;;2.50;1.73;;;23.20;46.80;;;;;;4981431;28;20440;-60
2022/07/09 10:42:19;;;;;;;2.57;1.80;;;23.10;46.90;;;;;;4981881;28;20288;-63
2022/07/09 10:44:46;;;;;;;1.73;1.50;;;23.00;46.30;;;;;;4985662;28;20456;-61
2022/07/09 10:47:12;;;;;;;3.07;1.93;;;22.90;46.20;;;;;;4982992;28;20409;-62
2022/07/09 10:49:38;;;;;;;4.17;1.47;;;22.90;46.30;;;;;;4983994;28;20511;-63
2022/07/09 10:52:05;;;;;;;1.40;1.30;;;22.90;45.00;;;;;;4983168;28;20599;-63
2022/07/09 10:54:31;;;;;;;2.03;1.63;;;23.00;44.10;;;;;;4978738;28;20225;-62
2022/07/09 10:56:57;;;;;;;5.03;2.67;;;22.90;45.30;;;;;;4980575;28;20520;-63
2022/07/09 10:59:24;;;;;;;3.57;2.07;;;22.70;46.20;;;;;;4983876;28;20793;-62
2022/07/09 11:01:51;;;;;;;4.00;1.97;;;22.50;45.90;;;;;;4985628;28;20657;-62
2022/07/09 11:04:31;;;;;;;3.73;1.70;;;22.40;46.60;;;;;;4981919;28;20980;-63
2022/07/09 11:06:57;;;;;;;1.93;1.77;;;22.60;46.70;;;;;;4983425;28;20974;-64
2022/07/09 11:09:27;;;;;;;2.90;1.77;;;23.00;46.00;;;;;;4980953;28;20442;-63
2022/07/09 11:11:53;;;;;;;3.43;1.70;;;23.40;46.20;;;;;;4984563;28;20511;-64
2022/07/09 11:14:19;;;;;;;3.30;1.40;;;23.80;46.70;;;;;;4977644;28;20586;-65
2022/07/09 11:17:00;;;;;;;2.90;1.77;;;24.30;47.00;;;;;;4978514;28;20181;-66
2022/07/09 11:19:26;;;;;;;2.00;1.40;;;24.60;46.10;;;;;;4975197;28;21410;-64
2022/07/09 11:22:02;;;;;;;5.20;1.67;;;24.90;44.30;;;;;;4981990;28;20494;-61
2022/07/09 11:24:29;;;;;;;2.30;1.57;;;25.10;44.40;;;;;;4982719;28;20200;-62
2022/07/09 11:26:55;;;;;;;3.53;1.80;;;25.20;42.30;;;;;;4980197;28;20471;-61
2022/07/09 11:29:21;;;;;;;2.50;1.37;;;25.20;42.40;;;;;;4983609;28;20436;-61
2022/07/09 11:31:48;;;;;;;1.80;1.70;;;25.40;41.30;;;;;;4980863;28;20451;-60
2022/07/09 11:34:16;;;;;;;3.23;1.37;;;25.30;40.60;;;;;;4976303;28;20951;-63
2022/07/09 11:36:51;;;;;;;2.70;1.80;;;24.90;40.00;;;;;;4984208;28;20448;-62
2022/07/09 11:39:36;;;;;;;2.77;1.87;;;24.50;41.60;;;;;;4982514;28;20535;-61
2022/07/09 11:42:02;;;;;;;4.47;2.03;;;24.20;43.30;;;;;;4976368;28;20566;-57
2022/07/09 11:44:35;;;;;;;1.87;1.47;;;24.10;45.40;;;;;;4987205;28;20468;-59
2022/07/09 11:47:08;;;;;;;2.40;1.70;;;24.10;44.60;;;;;;4982329;28;20444;-58
2022/07/09 11:49:38;;;;;;;1.80;1.60;;;24.00;44.10;;;;;;4988080;28;20901;-59
2022/07/09 11:52:24;;;;;;;2.30;1.50;;;24.20;44.60;;;;;;4986260;28;20439;-58
2022/07/09 11:55:02;;;;;;;3.93;1.40;;;24.50;44.60;;;;;;4983996;28;20463;-59
2022/07/09 11:57:30;;;;;;;2.37;1.70;;;24.80;43.50;;;;;;4987175;28;20544;-58
2022/07/09 11:59:56;;;;;;;2.60;1.40;;;25.10;44.20;;;;;;4988198;28;20444;-57
2022/07/09 12:02:36;;;;;;;2.23;1.50;;;25.40;43.00;;;;;;4985796;28;20570;-57
2022/07/09 12:05:04;;;;;;;3.53;1.40;;;25.60;43.30;;;;;;4983662;28;20470;-58
2022/07/09 12:07:30;;;;;;;4.13;1.70;;;25.60;42.00;;;;;;4979122;28;20463;-57
2022/07/09 12:10:02;;;;;;;1.83;1.60;;;25.60;41.90;;;;;;4985932;28;20424;-57
2022/07/09 12:12:28;;;;;;;2.50;1.73;;;25.70;42.20;;;;;;4989957;28;20176;-58
2022/07/09 12:14:56;;;;;;;6.00;1.80;;;25.70;42.10;;;;;;4990938;28;20432;-56
2022/07/09 12:17:26;;;;;;;2.77;1.37;;;25.80;42.50;;;;;;4979506;28;20427;-59
2022/07/09 12:19:53;;;;;;;4.30;1.77;;;26.20;43.60;;;;;;4980817;28;20868;-61
2022/07/09 12:22:19;;;;;;;3.70;1.30;;;26.50;42.70;;;;;;4985789;28;20945;-56
2022/07/09 12:24:45;;;;;;;2.53;1.57;;;26.80;43.30;;;;;;4984898;28;20463;-56
2022/07/09 12:27:10;;;;;;;2.63;1.57;;;26.90;42.00;;;;;;4984586;28;20960;-58
2022/07/09 12:29:36;;;;;;;3.60;1.40;;;26.90;41.00;;;;;;4986128;28;20211;-59
2022/07/09 12:32:02;;;;;;;1.67;1.10;;;26.70;40.30;;;;;;4976222;28;20194;-61
2022/07/09 12:34:28;;;;;;;5.00;1.30;;;26.70;41.90;;;;;;4979340;28;20756;-61
2022/07/09 12:36:54;;;;;;;1.90;1.60;;;26.60;41.70;;;;;;4987669;28;20444;-56
2022/07/09 12:39:20;;;;;;;4.37;1.50;;;26.30;41.00;;;;;;4981975;28;20184;-57
2022/07/09 12:41:46;;;;;;;2.67;1.63;;;26.00;41.70;;;;;;4985798;28;20440;-58
2022/07/09 12:44:12;;;;;;;4.87;1.40;;;25.70;41.70;;;;;;4982505;28;20467;-57